Time;durP1;ratioP1;P1;durP2;ratioP2;P2;SDS_P1;SDS_P2;PMS_P1;PMS_P2;Temp;Humidity;BMP_temperature;BMP_pressure;BME280_temperature;BME280_humidity;BME280_pressure;Samples;Min_cycle;Max_cycle;Signal;HPM_P1;HPM_P2
2022/07/14 00:00:16;;;;;;;10.93;1.23;;;;;;;12.33;91.21;101975.53;2095080;28;30932;-67
2022/07/14 00:01:18;;;;;;;14.13;1.23;;;;;;;12.32;91.23;101971.06;2096647;28;33114;-67
2022/07/14 00:02:23;;;;;;;6.50;0.80;;;;;;;12.30;91.20;101975.56;2099947;28;20548;-67
2022/07/14 00:03:24;;;;;;;9.48;0.90;;;;;;;12.28;90.95;101971.13;2096491;28;37198;-68
2022/07/14 00:04:26;;;;;;;9.15;1.35;;;;;;;12.25;91.54;101976.53;2096555;28;28466;-68
2022/07/14 00:05:29;;;;;;;6.47;0.88;;;;;;;12.21;91.21;101970.31;2096931;28;22390;-68
2022/07/14 00:06:31;;;;;;;7.32;0.90;;;;;;;12.19;91.75;101978.41;2096743;28;20318;-67
2022/07/14 00:07:34;;;;;;;16.33;1.23;;;;;;;12.17;91.29;101977.53;2096357;28;40115;-67
2022/07/14 00:08:35;;;;;;;11.15;0.95;;;;;;;12.16;91.23;101978.44;2096981;28;20114;-68
2022/07/14 00:09:39;;;;;;;9.27;0.93;;;;;;;12.16;91.73;101966.81;2097412;28;23121;-67
2022/07/14 00:10:41;;;;;;;11.23;1.30;;;;;;;12.16;91.72;101973.06;2096446;28;29170;-67
2022/07/14 00:11:43;;;;;;;11.00;1.20;;;;;;;12.17;92.00;101977.53;2096295;28;27278;-67
2022/07/14 00:12:48;;;;;;;12.32;1.17;;;;;;;12.17;91.84;101976.66;2095503;28;25746;-67
2022/07/14 00:13:50;;;;;;;11.38;1.20;;;;;;;12.15;92.20;101971.31;2096292;28;20946;-68
2022/07/14 00:14:52;;;;;;;8.52;1.20;;;;;;;12.15;92.02;101973.97;2096900;28;20037;-68
2022/07/14 00:15:55;;;;;;;11.13;0.82;;;;;;;12.14;91.93;101969.50;2096948;28;22002;-68
2022/07/14 00:16:57;;;;;;;9.50;1.15;;;;;;;12.15;92.44;101967.69;2096420;28;25407;-68
2022/07/14 00:18:00;;;;;;;13.52;1.17;;;;;;;12.13;92.30;101970.44;2095922;28;24407;-68
2022/07/14 00:19:04;;;;;;;10.63;1.33;;;;;;;12.11;91.62;101968.66;2088177;28;20146;-68
2022/07/14 00:20:10;;;;;;;9.50;1.17;;;;;;;12.11;91.76;101963.28;2096217;28;29065;-68
2022/07/14 00:21:16;;;;;;;10.73;0.80;;;;;;;12.11;92.84;101961.47;2095700;28;24475;-67
2022/07/14 00:22:18;;;;;;;10.85;1.10;;;;;;;12.09;91.84;101957.06;2096064;28;28303;-68
2022/07/14 00:23:25;;;;;;;5.72;0.90;;;;;;;12.06;91.95;101958.00;2096038;28;34151;-68
2022/07/14 00:24:27;;;;;;;8.48;1.05;;;;;;;12.02;92.15;101957.16;2097017;28;20164;-68
2022/07/14 00:25:29;;;;;;;6.53;0.85;;;;;;;11.99;92.17;101954.50;2096969;28;20145;-68
2022/07/14 00:26:34;;;;;;;10.20;1.13;;;;;;;11.98;92.13;101954.50;2096614;28;20037;-68
2022/07/14 00:27:36;;;;;;;9.80;1.05;;;;;;;11.94;91.96;101953.66;2095792;28;29562;-68
2022/07/14 00:28:38;;;;;;;12.55;1.00;;;;;;;11.91;92.37;101958.19;2096177;28;23107;-68
2022/07/14 00:29:40;;;;;;;10.40;1.10;;;;;;;11.89;92.53;101954.59;2095482;28;27843;-68
2022/07/14 00:30:42;;;;;;;13.45;1.17;;;;;;;11.87;92.43;101953.72;2096331;28;20056;-68
2022/07/14 00:31:44;;;;;;;11.27;1.02;;;;;;;11.83;92.24;101953.75;2087639;28;20045;-68
2022/07/14 00:32:47;;;;;;;8.52;1.10;;;;;;;11.83;92.59;101953.75;2096261;28;20171;-68
2022/07/14 00:33:49;;;;;;;9.88;1.02;;;;;;;11.82;92.69;101959.13;2096221;28;20037;-68
2022/07/14 00:34:53;;;;;;;9.43;1.15;;;;;;;11.82;92.67;101962.69;2095986;28;24897;-67
2022/07/14 00:35:55;;;;;;;9.52;1.02;;;;;;;11.79;92.55;101957.38;2095760;28;20037;-68
2022/07/14 00:36:58;;;;;;;9.00;1.15;;;;;;;11.79;92.94;101956.47;2096243;28;20179;-68
2022/07/14 00:38:02;;;;;;;8.27;0.80;;;;;;;11.79;92.83;101952.03;2095844;28;20174;-68
2022/07/14 00:39:04;;;;;;;13.70;1.25;;;;;;;11.79;93.25;101957.38;2096583;28;20993;-68
2022/07/14 00:40:07;;;;;;;10.43;1.10;;;;;;;11.79;93.23;101957.38;2096653;28;24312;-68
2022/07/14 00:41:11;;;;;;;12.13;1.38;;;;;;;11.79;93.00;101956.47;2096668;28;20914;-67
2022/07/14 00:42:13;;;;;;;11.80;0.82;;;;;;;11.79;93.31;101954.72;2096634;28;20952;-68
2022/07/14 00:43:15;;;;;;;9.70;1.05;;;;;;;11.79;93.46;101953.78;2095778;28;21843;-67
2022/07/14 00:44:17;;;;;;;11.60;1.40;;;;;;;11.79;93.43;101953.78;2096051;28;20048;-68
2022/07/14 00:45:21;;;;;;;9.75;1.17;;;;;;;11.77;93.14;101953.84;2104304;28;20105;-68
2022/07/14 00:46:23;;;;;;;12.10;1.08;;;;;;;11.75;93.10;101949.38;2104052;28;21094;-68
2022/07/14 00:47:26;;;;;;;14.55;1.55;;;;;;;11.76;93.61;101948.50;2103483;28;20041;-68
2022/07/14 00:48:27;;;;;;;11.35;1.25;;;;;;;11.74;93.19;101955.66;2104044;28;24421;-68
2022/07/14 00:49:37;;;;;;;9.05;1.38;;;;;;;11.70;93.39;101949.44;2104421;28;20965;-68
2022/07/14 00:50:41;;;;;;;13.25;1.17;;;;;;;11.71;93.75;101953.91;2096661;28;20038;-68
2022/07/14 00:51:43;;;;;;;11.68;1.30;;;;;;;11.70;93.64;101946.78;2095862;28;20045;-68
2022/07/14 00:52:47;;;;;;;9.43;0.73;;;;;;;11.67;93.71;101945.91;2078777;28;27834;-68
2022/07/14 00:53:56;;;;;;;8.60;1.20;;;;;;;11.62;93.19;101945.94;2073062;28;20050;-67
2022/07/14 00:55:01;;;;;;;12.40;1.20;;;;;;;11.59;93.36;101948.66;2096483;28;20037;-68
2022/07/14 00:56:03;;;;;;;11.18;1.30;;;;;;;11.58;93.92;101950.47;2096749;28;20034;-68
2022/07/14 00:57:07;;;;;;;8.07;1.40;;;;;;;11.56;93.93;101946.91;2103541;28;28813;-68
2022/07/14 00:58:10;;;;;;;15.35;1.73;;;;;;;11.54;94.27;101947.81;2104063;28;20086;-67
2022/07/14 00:59:12;;;;;;;9.85;1.38;;;;;;;11.51;94.15;101943.38;2095891;28;20876;-68
2022/07/14 01:00:17;;;;;;;12.35;1.30;;;;;;;11.50;94.09;101944.28;2095695;28;28271;-68
2022/07/14 01:01:19;;;;;;;11.75;1.17;;;;;;;11.45;93.60;101944.34;2103816;28;20174;-68
2022/07/14 01:02:21;;;;;;;9.70;0.90;;;;;;;11.44;93.96;101942.56;2096207;28;34657;-67
2022/07/14 01:03:22;;;;;;;11.00;1.08;;;;;;;11.42;94.20;101952.41;2096056;28;20111;-68
2022/07/14 01:04:25;;;;;;;14.15;1.48;;;;;;;11.42;94.23;101952.41;2095772;28;21594;-68
2022/07/14 01:05:27;;;;;;;14.45;1.48;;;;;;;11.40;94.64;101950.66;2096515;28;26762;-68
2022/07/14 01:06:29;;;;;;;8.00;1.33;;;;;;;11.37;94.64;101948.00;2097559;28;20033;-68
2022/07/14 01:07:31;;;;;;;9.80;1.20;;;;;;;11.34;94.44;101943.56;2097795;28;25121;-68
2022/07/14 01:08:32;;;;;;;8.55;0.95;;;;;;;11.35;94.58;101948.00;2098347;28;20041;-68
2022/07/14 01:09:34;;;;;;;11.02;1.48;;;;;;;11.36;94.84;101938.16;2097222;28;20049;-68
2022/07/14 01:10:40;;;;;;;9.88;1.77;;;;;;;11.35;95.06;101944.47;2096904;28;33041;-68
2022/07/14 01:11:41;;;;;;;12.15;1.80;;;;;;;11.31;94.73;101932.88;2097985;28;20977;-68
2022/07/14 01:12:49;;;;;;;10.80;1.98;;;;;;;11.30;94.88;101943.59;2098282;28;20049;-68
2022/07/14 01:13:51;;;;;;;18.13;2.33;;;;;;;11.30;95.56;101940.94;2098274;28;20052;-67
2022/07/14 01:14:52;;;;;;;10.75;1.90;;;;;;;11.30;95.46;101944.50;2097230;28;23666;-68
2022/07/14 01:15:54;;;;;;;10.68;2.10;;;;;;;11.29;96.33;101948.09;2096889;28;20056;-68
2022/07/14 01:16:57;;;;;;;10.18;1.70;;;;;;;11.26;95.69;101945.44;2106061;28;20112;-68
2022/07/14 01:17:59;;;;;;;15.35;2.33;;;;;;;11.25;95.74;101943.63;2097480;28;20041;-68
2022/07/14 01:19:01;;;;;;;12.82;2.22;;;;;;;11.22;95.84;101941.00;2097573;28;20033;-68
2022/07/14 01:20:05;;;;;;;14.18;2.15;;;;;;;11.25;96.43;101946.31;2098727;28;20052;-68
2022/07/14 01:21:08;;;;;;;11.65;1.88;;;;;;;11.20;96.17;101945.50;2097738;28;20200;-68
2022/07/14 01:22:12;;;;;;;10.35;1.70;;;;;;;11.19;95.66;101933.88;2104192;28;37873;-68
2022/07/14 01:23:14;;;;;;;10.32;1.52;;;;;;;11.14;95.68;101935.69;2105448;28;20028;-68
2022/07/14 01:24:15;;;;;;;10.75;1.52;;;;;;;11.12;95.83;101942.00;2105717;28;20036;-68
2022/07/14 01:25:20;;;;;;;9.70;1.50;;;;;;;11.09;95.62;101937.56;2105263;28;21090;-68
2022/07/14 01:26:24;;;;;;;11.07;1.30;;;;;;;11.06;96.13;101932.22;2097450;28;20052;-68
2022/07/14 01:27:26;;;;;;;6.93;1.17;;;;;;;11.03;96.26;101935.78;2088857;28;20041;-69
2022/07/14 01:28:27;;;;;;;11.13;1.35;;;;;;;11.03;96.28;101933.13;2097703;28;20126;-68
2022/07/14 01:29:29;;;;;;;13.40;1.40;;;;;;;11.00;96.37;101934.94;2097097;28;20045;-68
2022/07/14 01:30:31;;;;;;;10.35;1.70;;;;;;;10.97;96.51;101938.53;2097102;28;26387;-68
2022/07/14 01:31:33;;;;;;;10.98;1.42;;;;;;;10.98;96.44;101931.38;2097810;28;20053;-68
2022/07/14 01:32:36;;;;;;;14.07;1.50;;;;;;;10.97;96.47;101932.31;2096621;28;33243;-68
2022/07/14 01:33:41;;;;;;;12.50;1.95;;;;;;;10.99;97.45;101942.09;2088996;28;20923;-68
2022/07/14 01:34:43;;;;;;;11.00;1.90;;;;;;;10.95;96.21;101940.34;2088763;28;20037;-68
2022/07/14 01:35:48;;;;;;;9.13;1.70;;;;;;;10.94;96.76;101943.91;2089173;28;21011;-68
2022/07/14 01:36:53;;;;;;;8.82;1.48;;;;;;;10.91;96.90;101938.59;2088880;28;20107;-68
2022/07/14 01:37:55;;;;;;;12.50;1.85;;;;;;;10.89;96.74;101935.03;2089128;28;20166;-69
2022/07/14 01:38:57;;;;;;;7.05;1.50;;;;;;;10.84;96.31;101926.16;2089600;28;20037;-68
2022/07/14 01:40:01;;;;;;;11.93;1.33;;;;;;;10.84;96.53;101934.19;2097114;28;20041;-68
2022/07/14 01:41:03;;;;;;;14.55;2.00;;;;;;;10.79;96.75;101936.03;2097367;28;20044;-68
2022/07/14 01:42:08;;;;;;;12.05;1.67;;;;;;;10.77;97.08;101928.00;2097083;28;20883;-68
2022/07/14 01:43:13;;;;;;;10.25;1.20;;;;;;;10.78;97.27;101942.28;2097018;28;20044;-68
2022/07/14 01:44:16;;;;;;;7.63;0.98;;;;;;;10.76;97.17;101938.72;2097758;28;20154;-67
2022/07/14 01:45:18;;;;;;;9.30;1.40;;;;;;;10.75;97.65;101937.84;2097083;28;20814;-68
2022/07/14 01:46:20;;;;;;;9.00;1.58;;;;;;;10.77;97.61;101935.16;2097033;28;20040;-68
2022/07/14 01:47:22;;;;;;;8.20;0.98;;;;;;;10.78;97.83;101934.22;2088965;28;20103;-68
2022/07/14 01:48:24;;;;;;;14.48;1.50;;;;;;;10.76;97.85;101936.03;2088861;28;20138;-68
2022/07/14 01:49:27;;;;;;;10.50;1.48;;;;;;;10.75;97.79;101931.56;2093383;28;20029;-68
2022/07/14 01:50:30;;;;;;;9.77;1.17;;;;;;;10.72;97.86;101926.25;2096725;28;20033;-68
2022/07/14 01:51:33;;;;;;;9.40;1.17;;;;;;;10.69;97.77;101922.72;2097223;28;20033;-67
2022/07/14 01:52:36;;;;;;;8.80;1.20;;;;;;;10.65;97.47;101925.41;2106469;28;20040;-68
2022/07/14 01:53:41;;;;;;;7.43;1.25;;;;;;;10.62;97.32;101931.69;2096784;28;20053;-68
2022/07/14 01:54:43;;;;;;;8.02;1.58;;;;;;;10.57;97.40;101922.78;2097564;28;20054;-68
2022/07/14 01:55:48;;;;;;;9.98;1.35;;;;;;;10.57;97.89;101932.59;2097135;28;20061;-68
2022/07/14 01:56:50;;;;;;;8.30;1.35;;;;;;;10.54;97.99;101925.47;2088825;28;20049;-65
2022/07/14 01:57:52;;;;;;;9.63;0.90;;;;;;;10.52;97.73;101932.66;2088960;28;20151;-68
2022/07/14 01:58:54;;;;;;;9.82;1.15;;;;;;;10.50;97.78;101929.09;2090033;28;20041;-68
2022/07/14 01:59:56;;;;;;;11.88;1.58;;;;;;;10.47;98.02;101926.44;2096988;28;20184;-68
2022/07/14 02:02:19;;;;;;;10.30;1.30;;;;;;;10.39;98.22;101922.91;2083551;28;20072;-69
2022/07/14 02:03:24;;;;;;;7.00;1.08;;;;;;;10.35;97.86;101930.06;2072336;28;20105;-68
2022/07/14 02:04:29;;;;;;;12.35;1.40;;;;;;;10.30;97.87;101923.81;2082240;28;20164;-68
2022/07/14 02:05:34;;;;;;;9.82;1.17;;;;;;;10.27;98.03;101923.84;2088231;28;20147;-68
2022/07/14 02:06:44;;;;;;;7.03;1.00;;;;;;;10.23;97.99;101922.97;2080606;28;20054;-69
2022/07/14 02:07:54;;;;;;;9.52;1.48;;;;;;;10.16;98.62;101921.22;2097012;28;20057;-69
2022/07/14 02:09:00;;;;;;;13.57;1.48;;;;;;;10.12;98.46;101922.13;2096045;28;20175;-68
2022/07/14 02:12:49;;;;;;;10.50;1.25;;;;;;;10.00;98.11;101916.84;2088571;28;20041;-68
2022/07/14 02:13:50;;;;;;;9.80;1.58;;;;;;;9.98;98.53;101918.63;2083091;28;20046;-68
2022/07/14 02:14:52;;;;;;;7.10;1.33;;;;;;;9.96;99.28;101924.00;2080727;28;20042;-68
2022/07/14 02:15:55;;;;;;;10.63;1.60;;;;;;;9.98;99.20;101918.63;2088819;28;20072;-68
2022/07/14 02:16:58;;;;;;;9.93;1.63;;;;;;;9.96;98.89;101923.09;2105372;28;20099;-68
2022/07/14 02:18:00;;;;;;;8.43;1.20;;;;;;;9.99;99.95;101928.44;2096083;28;20052;-68
2022/07/14 02:19:02;;;;;;;12.88;1.60;;;;;;;9.96;99.65;101925.78;2096729;28;20037;-68
2022/07/14 02:20:06;;;;;;;10.23;1.42;;;;;;;9.96;99.36;101924.00;2096901;28;20054;-68
2022/07/14 02:21:07;;;;;;;10.80;1.65;;;;;;;9.96;100.00;101918.66;2096999;28;21024;-68
2022/07/14 02:22:10;;;;;;;8.70;1.08;;;;;;;9.97;99.62;101923.09;2097316;28;32990;-68
2022/07/14 02:23:11;;;;;;;10.52;1.58;;;;;;;9.96;100.00;101920.41;2098013;28;34136;-68
2022/07/14 02:24:14;;;;;;;13.82;1.67;;;;;;;9.97;99.47;101920.41;2096847;28;20753;-68
2022/07/14 02:25:16;;;;;;;9.38;1.35;;;;;;;9.93;99.27;101921.34;2089212;28;20099;-68
2022/07/14 02:26:18;;;;;;;8.48;1.40;;;;;;;9.90;99.40;101916.88;2096906;28;20798;-68
2022/07/14 02:27:20;;;;;;;10.93;1.50;;;;;;;9.86;99.23;101923.13;2105230;28;20032;-68
2022/07/14 02:28:24;;;;;;;8.35;1.00;;;;;;;9.83;99.96;101923.13;2097569;28;21806;-68
2022/07/14 02:29:26;;;;;;;8.10;1.17;;;;;;;9.83;99.72;101917.78;2097305;28;20118;-68
2022/07/14 02:30:31;;;;;;;13.13;1.88;;;;;;;9.81;99.35;101919.59;2097526;28;20118;-68
2022/07/14 02:31:36;;;;;;;10.88;1.52;;;;;;;9.80;99.39;101927.63;2096728;28;20238;-68
2022/07/14 02:32:38;;;;;;;10.10;1.63;;;;;;;9.79;100.00;101925.84;2096659;28;20036;-68
2022/07/14 02:33:40;;;;;;;11.00;1.90;;;;;;;9.78;100.00;101922.31;2097940;28;20940;-68
2022/07/14 02:34:42;;;;;;;7.85;1.45;;;;;;;9.77;99.80;101931.19;2096753;28;20080;-68
2022/07/14 02:35:46;;;;;;;13.07;2.10;;;;;;;9.80;100.00;101925.84;2080846;28;20120;-68
2022/07/14 02:36:47;;;;;;;14.30;2.00;;;;;;;9.82;100.00;101932.09;2088757;28;20190;-68
2022/07/14 02:37:49;;;;;;;11.70;2.50;;;;;;;9.91;100.00;101920.47;2097563;28;20126;-66
2022/07/14 02:38:55;;;;;;;14.60;1.95;;;;;;;9.91;100.00;101929.38;2096814;28;20041;-69
2022/07/14 02:39:57;;;;;;;12.93;2.35;;;;;;;9.91;100.00;101924.00;2097253;28;20049;-67
2022/07/14 02:40:59;;;;;;;7.72;1.17;;;;;;;9.92;100.00;101920.47;2105149;28;20862;-68
2022/07/14 02:42:00;;;;;;;6.50;1.40;;;;;;;9.91;100.00;101923.13;2105166;28;20037;-68
2022/07/14 02:43:05;;;;;;;10.38;2.30;;;;;;;9.89;100.00;101922.25;2096578;28;20041;-68
2022/07/14 02:44:08;;;;;;;13.40;2.60;;;;;;;9.90;100.00;101919.53;2097553;28;20049;-68
2022/07/14 02:45:14;;;;;;;11.30;2.13;;;;;;;9.90;100.00;101918.66;2088314;28;20929;-68
2022/07/14 02:46:17;;;;;;;10.68;2.20;;;;;;;9.90;100.00;101922.22;2089778;28;20578;-68
2022/07/14 02:47:18;;;;;;;12.63;1.83;;;;;;;9.86;100.00;101925.81;2096863;28;21395;-68
2022/07/14 02:48:20;;;;;;;15.25;2.28;;;;;;;9.84;100.00;101921.38;2097051;28;22283;-68
2022/07/14 02:49:22;;;;;;;15.65;2.72;;;;;;;9.84;100.00;101924.94;2104965;28;20167;-68
2022/07/14 02:50:24;;;;;;;10.65;2.17;;;;;;;9.83;100.00;101917.78;2096469;28;20029;-68
2022/07/14 02:51:29;;;;;;;11.15;2.17;;;;;;;9.82;100.00;101920.50;2096379;28;20037;-68
2022/07/14 02:52:33;;;;;;;14.43;2.40;;;;;;;9.81;100.00;101919.59;2104682;28;23761;-68
2022/07/14 02:53:37;;;;;;;10.20;2.55;;;;;;;9.80;100.00;101922.25;2105355;28;20036;-68
2022/07/14 02:54:41;;;;;;;6.47;1.55;;;;;;;9.77;100.00;101917.84;2097138;28;20170;-68
2022/07/14 02:55:43;;;;;;;9.32;2.13;;;;;;;9.74;100.00;101917.84;2096222;28;20106;-68
2022/07/14 02:56:45;;;;;;;10.25;1.80;;;;;;;9.72;100.00;101922.31;2096740;28;20150;-68
2022/07/14 02:57:50;;;;;;;11.55;2.05;;;;;;;9.72;100.00;101928.53;2088502;28;20042;-68
2022/07/14 02:58:52;;;;;;;13.63;2.83;;;;;;;9.72;100.00;101933.00;2096257;28;21271;-68
2022/07/14 02:59:55;;;;;;;12.43;3.00;;;;;;;9.72;100.00;101928.53;2096648;28;20041;-68
2022/07/14 03:00:56;;;;;;;10.32;2.20;;;;;;;9.72;100.00;101930.31;2088356;28;20195;-68
2022/07/14 03:01:58;;;;;;;12.20;2.58;;;;;;;9.70;100.00;101930.31;2088160;28;20148;-68
2022/07/14 03:03:01;;;;;;;15.77;3.22;;;;;;;9.70;100.00;101927.66;2096856;28;20916;-68
2022/07/14 03:04:04;;;;;;;16.05;3.03;;;;;;;9.70;100.00;101926.78;2105065;28;20091;-68
2022/07/14 03:05:06;;;;;;;14.60;2.75;;;;;;;9.71;100.00;101924.09;2104920;28;20037;-68
2022/07/14 03:06:13;;;;;;;10.07;3.05;;;;;;;9.73;100.00;101932.13;2096282;28;20791;-68
2022/07/14 03:07:16;;;;;;;8.18;2.33;;;;;;;9.74;100.00;101936.56;2097020;28;20096;-68
2022/07/14 03:08:18;;;;;;;14.25;3.20;;;;;;;9.77;100.00;101933.88;2096642;28;20049;-68
2022/07/14 03:09:20;;;;;;;13.93;3.00;;;;;;;9.80;100.00;101936.56;2097057;28;20052;-68
2022/07/14 03:10:22;;;;;;;9.20;2.38;;;;;;;9.81;100.00;101935.63;2096023;28;22105;-67
2022/07/14 03:11:26;;;;;;;13.02;2.90;;;;;;;9.80;100.00;101938.31;2096846;28;20160;-68
2022/07/14 03:12:28;;;;;;;11.55;2.78;;;;;;;9.79;100.00;101933.88;2097243;28;20030;-68
2022/07/14 03:14:02;;;;;;;14.88;3.03;;;;;;;9.76;100.00;101937.44;2106222;28;20037;-69
2022/07/14 03:15:07;;;;;;;13.80;2.88;;;;;;;9.72;100.00;101941.03;2096808;28;20878;-60
2022/07/14 03:16:09;;;;;;;8.93;2.80;;;;;;;9.69;100.00;101933.00;2096248;28;20148;-61
2022/07/14 03:17:16;;;;;;;11.32;3.35;;;;;;;9.67;100.00;101934.78;2088521;28;20038;-61
2022/07/14 03:18:18;;;;;;;11.32;3.00;;;;;;;9.68;100.00;101939.25;2088254;28;20037;-61
2022/07/14 03:19:20;;;;;;;12.70;2.90;;;;;;;9.68;100.00;101939.25;2096289;28;20246;-61
2022/07/14 03:20:22;;;;;;;13.80;3.45;;;;;;;9.69;100.00;101938.34;2088297;28;20092;-61
2022/07/14 03:21:24;;;;;;;12.43;3.20;;;;;;;9.68;100.00;101933.91;2088105;28;20122;-61
2022/07/14 03:22:29;;;;;;;12.55;3.28;;;;;;;9.65;100.00;101940.16;2080268;28;20551;-61
2022/07/14 03:23:34;;;;;;;12.50;2.90;;;;;;;9.63;100.00;101939.25;2088823;28;20049;-60
2022/07/14 03:24:38;;;;;;;11.20;2.55;;;;;;;9.62;100.00;101937.50;2096363;28;20385;-59
2022/07/14 03:25:46;;;;;;;10.57;2.53;;;;;;;9.59;100.00;101934.81;2088028;28;20148;-60
2022/07/14 03:26:50;;;;;;;10.75;2.47;;;;;;;9.60;100.00;101941.06;2088039;28;20041;-60
2022/07/14 03:27:54;;;;;;;15.88;3.72;;;;;;;9.60;100.00;101939.28;2087925;28;20969;-61
2022/07/14 03:29:02;;;;;;;15.63;3.92;;;;;;;9.62;100.00;101932.16;2095724;28;20918;-60
2022/07/14 03:30:09;;;;;;;11.52;3.58;;;;;;;9.61;100.00;101938.38;2079660;28;20093;-60
2022/07/14 03:31:11;;;;;;;11.65;2.72;;;;;;;9.63;100.00;101943.72;2081232;28;20054;-61
2022/07/14 03:32:13;;;;;;;6.32;2.55;;;;;;;9.62;100.00;101936.59;2088892;28;20069;-61
2022/07/14 03:33:17;;;;;;;9.40;2.88;;;;;;;9.61;100.00;101935.72;2088115;28;20977;-61
2022/07/14 03:34:20;;;;;;;11.18;2.88;;;;;;;9.69;100.00;101938.34;2080076;28;20042;-61
2022/07/14 03:35:22;;;;;;;11.80;2.97;;;;;;;9.67;100.00;101937.47;2080061;28;20053;-61
2022/07/14 03:36:26;;;;;;;14.07;3.80;;;;;;;9.69;100.00;101938.34;2087862;28;20037;-61
2022/07/14 03:37:29;;;;;;;15.75;3.90;;;;;;;9.76;100.00;101942.78;2096297;28;20048;-61
2022/07/14 03:38:35;;;;;;;10.45;3.30;;;;;;;9.74;100.00;101944.56;2096355;28;20045;-61
2022/07/14 03:39:46;;;;;;;13.38;3.45;;;;;;;9.74;100.00;101944.56;2096247;28;20041;-61
2022/07/14 03:40:48;;;;;;;9.85;3.53;;;;;;;9.75;100.00;101941.03;2087997;28;20045;-60
2022/07/14 03:41:51;;;;;;;12.15;3.53;;;;;;;9.73;100.00;101938.34;2088305;28;20044;-61
2022/07/14 03:42:56;;;;;;;11.32;3.50;;;;;;;9.73;100.00;101941.03;2096221;28;20056;-61
2022/07/14 03:43:58;;;;;;;13.77;3.53;;;;;;;9.75;100.00;101941.03;2096550;28;20867;-61
2022/07/14 03:44:59;;;;;;;11.23;3.30;;;;;;;9.77;100.00;101941.03;2099007;28;20089;-60
2022/07/14 03:46:02;;;;;;;12.77;3.97;;;;;;;9.77;100.00;101944.56;2096265;28;20178;-61
2022/07/14 03:47:07;;;;;;;16.48;4.10;;;;;;;9.78;100.00;101935.66;2088219;28;20041;-61
2022/07/14 03:48:11;;;;;;;12.45;3.75;;;;;;;9.80;100.00;101932.97;2071955;28;20851;-61
2022/07/14 03:49:18;;;;;;;11.05;3.22;;;;;;;9.84;100.00;101937.44;2073863;28;21052;-61
2022/07/14 03:50:21;;;;;;;11.27;3.90;;;;;;;9.87;100.00;101934.72;2088495;28;20044;-61
2022/07/14 03:51:24;;;;;;;16.40;4.43;;;;;;;9.96;100.00;101940.06;2087857;28;20894;-61
2022/07/14 03:52:26;;;;;;;13.20;4.35;;;;;;;9.95;100.00;101940.94;2080150;28;20038;-61
2022/07/14 03:53:30;;;;;;;12.98;4.18;;;;;;;9.96;100.00;101934.72;2088111;28;21313;-61
2022/07/14 03:54:32;;;;;;;13.77;4.18;;;;;;;10.02;100.00;101939.13;2088254;28;20045;-61
2022/07/14 03:55:35;;;;;;;12.73;3.90;;;;;;;10.03;100.00;101941.81;2088253;28;20183;-61
2022/07/14 03:56:37;;;;;;;8.57;3.28;;;;;;;10.07;100.00;101943.56;2096618;28;20901;-61
2022/07/14 03:57:38;;;;;;;13.50;4.03;;;;;;;10.11;100.00;101944.44;2096204;28;20033;-61
2022/07/14 03:58:43;;;;;;;8.25;3.42;;;;;;;10.17;100.00;101952.44;2096429;28;20025;-61
2022/07/14 03:59:49;;;;;;;11.10;3.80;;;;;;;10.27;100.00;101946.13;2087658;28;20115;-61
2022/07/14 04:00:54;;;;;;;10.30;3.60;;;;;;;10.43;100.00;101951.44;2079369;28;20959;-61
2022/07/14 04:01:56;;;;;;;9.30;3.30;;;;;;;10.59;100.00;101944.22;2079354;28;20042;-61
2022/07/14 04:02:58;;;;;;;14.88;3.25;;;;;;;10.76;100.00;101944.06;2088144;28;20060;-61
2022/07/14 04:04:03;;;;;;;9.02;2.88;;;;;;;10.86;100.00;101940.44;2079585;28;20231;-61
2022/07/14 04:05:07;;;;;;;11.07;3.58;;;;;;;10.94;100.00;101946.59;2072048;28;20043;-60
2022/07/14 04:06:09;;;;;;;13.90;4.30;;;;;;;10.99;100.00;101939.41;2079593;28;20989;-61
2022/07/14 04:07:11;;;;;;;12.73;4.05;;;;;;;11.07;100.00;101940.25;2087468;28;20828;-60
2022/07/14 04:08:17;;;;;;;9.18;2.90;;;;;;;11.25;99.73;101940.97;2079616;28;20053;-60
2022/07/14 04:09:25;;;;;;;9.60;3.17;;;;;;;11.50;99.29;101943.41;2082703;28;20038;-61
2022/07/14 04:10:30;;;;;;;9.15;3.78;;;;;;;11.73;98.52;101941.34;2096083;28;20138;-61
2022/07/14 04:11:32;;;;;;;11.70;3.22;;;;;;;11.93;97.41;101940.25;2095756;28;20175;-61
2022/07/14 04:12:35;;;;;;;9.80;2.47;;;;;;;12.22;96.16;101940.78;2087908;28;20049;-61
2022/07/14 04:13:39;;;;;;;8.20;2.58;;;;;;;12.62;95.25;101943.81;2080162;28;20182;-61
2022/07/14 04:14:41;;;;;;;6.55;2.35;;;;;;;13.05;94.27;101938.59;2079466;28;20155;-61
2022/07/14 04:15:42;;;;;;;10.43;2.60;;;;;;;13.54;92.12;101936.84;2088092;28;20050;-61
2022/07/14 04:16:44;;;;;;;10.00;2.13;;;;;;;13.97;88.28;101930.59;2087764;28;20053;-61
2022/07/14 04:17:47;;;;;;;8.27;2.20;;;;;;;14.37;86.05;101934.22;2080358;28;20910;-61
2022/07/14 04:18:49;;;;;;;11.50;2.28;;;;;;;14.80;83.60;101927.84;2079464;28;20046;-60
2022/07/14 04:19:53;;;;;;;7.55;1.65;;;;;;;15.33;82.26;101925.56;2087999;28;20037;-61
2022/07/14 04:20:55;;;;;;;6.40;1.88;;;;;;;15.79;79.38;101923.41;2095799;28;20076;-61
2022/07/14 04:22:00;;;;;;;7.68;1.88;;;;;;;16.11;75.47;101922.47;2096124;28;20080;-62
2022/07/14 04:23:25;;;;;;;5.60;1.40;;;;;;;16.69;74.65;101927.88;2095927;28;20060;-60
2022/07/14 04:24:27;;;;;;;7.10;1.42;;;;;;;17.13;72.86;101922.81;2087003;28;20123;-61
2022/07/14 04:25:32;;;;;;;10.88;1.70;;;;;;;17.58;70.72;101920.34;2087630;28;20127;-61
2022/07/14 04:26:37;;;;;;;8.45;1.30;;;;;;;17.88;68.62;101912.94;2087677;28;20099;-61
2022/07/14 04:27:40;;;;;;;4.85;1.35;;;;;;;18.29;67.87;101918.59;2087572;28;20127;-61
2022/07/14 04:28:42;;;;;;;7.97;1.40;;;;;;;18.79;67.49;101912.94;2079654;28;20866;-61
2022/07/14 04:29:44;;;;;;;9.52;1.60;;;;;;;18.98;63.42;101904.91;2087580;28;20047;-61
2022/07/14 04:30:46;;;;;;;4.78;1.25;;;;;;;19.21;62.89;101911.19;2079371;28;20088;-61
2022/07/14 04:31:49;;;;;;;6.07;1.33;;;;;;;19.51;61.70;101916.22;2063531;28;20946;-61
2022/07/14 04:32:56;;;;;;;6.63;1.50;;;;;;;19.81;61.81;101917.56;2074034;28;20077;-61
2022/07/14 04:33:58;;;;;;;5.00;1.05;;;;;;;20.30;60.84;101911.63;2087807;28;20045;-61
2022/07/14 04:35:05;;;;;;;7.68;1.00;;;;;;;20.55;59.14;101921.34;2079652;28;20157;-61
2022/07/14 04:36:13;;;;;;;5.05;1.10;;;;;;;20.36;55.54;101929.50;2088324;28;20038;-61
2022/07/14 04:37:15;;;;;;;6.68;1.13;;;;;;;20.99;57.57;101929.13;2079115;28;20061;-60
2022/07/14 04:38:17;;;;;;;5.10;0.93;;;;;;;21.10;55.18;101920.41;2071295;28;20046;-60
2022/07/14 04:39:22;;;;;;;6.63;1.17;;;;;;;21.54;52.68;101919.94;2079835;28;20038;-61
2022/07/14 04:40:25;;;;;;;6.18;0.90;;;;;;;21.83;52.64;101915.63;2079455;28;20170;-60
2022/07/14 04:41:27;;;;;;;5.13;1.00;;;;;;;22.22;53.66;101919.84;2072331;28;20148;-61
2022/07/14 04:42:29;;;;;;;6.78;1.25;;;;;;;22.53;51.86;101915.38;2076256;28;20049;-61
2022/07/14 04:43:34;;;;;;;8.25;1.05;;;;;;;22.59;51.28;101917.75;2089163;28;20147;-61
2022/07/14 04:44:38;;;;;;;7.28;1.08;;;;;;;22.85;52.11;101910.78;2097944;28;20950;-60
2022/07/14 04:45:40;;;;;;;4.60;1.20;;;;;;;23.12;51.28;101909.25;2097142;28;21064;-59
2022/07/14 04:46:42;;;;;;;6.32;0.90;;;;;;;23.49;48.74;101916.09;2097742;28;20175;-60
2022/07/14 04:47:44;;;;;;;5.40;0.98;;;;;;;23.62;49.12;101913.47;2097280;28;20037;-60
2022/07/14 04:52:53;;;;;;;6.65;1.08;;;;;;;24.11;47.03;101906.75;2089572;28;20171;-60
2022/07/14 04:54:28;;;;;;;4.88;0.98;;;;;;;24.20;47.07;101917.09;2093124;28;20108;-61
2022/07/14 04:55:50;;;;;;;7.80;1.45;;;;;;;24.51;46.26;101906.84;2063832;28;20101;-61
2022/07/14 04:57:03;;;;;;;5.20;1.10;;;;;;;24.07;43.54;101911.53;2087589;28;20156;-61
2022/07/14 04:58:09;;;;;;;6.22;1.00;;;;;;;24.99;44.60;101912.78;2088898;28;20041;-61
2022/07/14 04:59:12;;;;;;;3.63;0.75;;;;;;;25.31;43.67;101909.72;2089518;28;20033;-61
2022/07/14 05:00:14;;;;;;;5.50;1.05;;;;;;;25.06;43.21;101905.88;2088934;28;20931;-61
2022/07/14 05:01:20;;;;;;;2.97;1.00;;;;;;;24.97;44.81;101914.75;2081275;28;20034;-61
2022/07/14 05:02:22;;;;;;;6.90;1.13;;;;;;;25.21;42.62;101912.16;2081193;28;20890;-61